createdAt,value
2018-08-17T04:10:38.649Z,19.37
2018-08-17T04:13:09.261Z,20.67
2018-08-17T04:15:39.968Z,18.93
2018-08-17T04:18:10.821Z,16.70
2018-08-17T04:20:41.636Z,15.67
2018-08-17T04:23:11.847Z,13.83
2018-08-17T04:25:42.650Z,13.40
2018-08-17T04:28:14.137Z,12.20
2018-08-17T04:30:47.122Z,11.57
2018-08-17T04:33:17.675Z,11.23
2018-08-17T04:35:52.406Z,11.00
2018-08-17T04:38:22.902Z,11.07
2018-08-17T04:40:59.379Z,11.30
2018-08-17T04:43:31.228Z,10.80
2018-08-17T04:46:02.174Z,10.37
2018-08-17T04:48:33.434Z,10.37
2018-08-17T04:51:04.214Z,9.83
2018-08-17T04:53:34.922Z,9.87
2018-08-17T04:56:05.732Z,9.57
2018-08-17T04:58:36.327Z,8.87
2018-08-17T05:01:07.245Z,9.43
2018-08-17T05:03:37.841Z,8.63
2018-08-17T05:06:08.478Z,8.33
2018-08-17T05:08:39.044Z,8.93
2018-08-17T05:11:09.781Z,9.63
2018-08-17T05:13:40.590Z,8.47
2018-08-17T05:16:11.300Z,8.03
2018-08-17T05:18:41.953Z,8.50
2018-08-17T05:21:12.368Z,8.30
2018-08-17T05:23:43.005Z,8.43
2018-08-17T05:26:14.116Z,8.40
2018-08-17T05:28:44.790Z,8.00
2018-08-17T05:31:15.493Z,7.80
2018-08-17T05:33:46.158Z,7.03
2018-08-17T05:36:16.845Z,7.90
2018-08-17T05:38:47.481Z,7.17
2018-08-17T05:41:18.298Z,7.33
2018-08-17T05:43:48.920Z,7.53
2018-08-17T05:46:19.740Z,7.17
2018-08-17T05:48:50.241Z,7.93
2018-08-17T05:51:20.906Z,8.40
2018-08-17T05:53:51.476Z,8.13
2018-08-17T05:56:22.036Z,7.87
2018-08-17T05:58:52.528Z,7.93
2018-08-17T06:01:24.245Z,7.03
2018-08-17T06:03:54.772Z,7.57
2018-08-17T06:06:25.526Z,7.00
2018-08-17T06:08:56.215Z,6.97
2018-08-17T06:11:26.958Z,7.13
2018-08-17T06:13:57.526Z,6.93
2018-08-17T06:16:28.338Z,6.83
2018-08-17T06:18:58.956Z,6.27
2018-08-17T06:21:29.638Z,6.53
2018-08-17T06:24:00.302Z,5.97
2018-08-17T06:26:30.997Z,6.27
2018-08-17T06:29:01.665Z,5.47
2018-08-17T06:31:32.154Z,5.50
2018-08-17T06:34:02.776Z,5.73
2018-08-17T06:36:33.704Z,5.70
2018-08-17T06:39:05.521Z,5.73
2018-08-17T06:41:36.213Z,6.00
2018-08-17T06:44:06.933Z,6.07
2018-08-17T06:46:37.737Z,5.70
2018-08-17T06:49:08.357Z,5.10
2018-08-17T06:51:39.098Z,5.80
2018-08-17T06:54:09.576Z,5.47
2018-08-17T06:56:40.310Z,5.60
2018-08-17T06:59:10.930Z,5.13
2018-08-17T07:01:41.609Z,6.20
2018-08-17T07:04:12.129Z,6.17
2018-08-17T07:06:42.861Z,5.90
2018-08-17T07:09:13.532Z,5.40
2018-08-17T07:11:44.308Z,5.60
2018-08-17T07:14:14.846Z,4.97
2018-08-17T07:16:45.352Z,5.60
2018-08-17T07:19:15.800Z,5.47
2018-08-17T07:21:46.509Z,5.57
2018-08-17T07:24:17.105Z,5.00
2018-08-17T07:26:47.765Z,5.10
2018-08-17T07:29:18.320Z,5.37
2018-08-17T07:31:48.995Z,5.17
2018-08-17T07:34:19.480Z,5.20
2018-08-17T07:36:50.121Z,5.67
2018-08-17T07:39:20.760Z,5.23
2018-08-17T07:41:51.322Z,4.87
2018-08-17T07:44:21.777Z,4.70
2018-08-17T07:46:52.489Z,5.07
2018-08-17T07:49:23.085Z,5.03
2018-08-17T07:51:53.896Z,4.70
2018-08-17T07:54:24.549Z,4.80
2018-08-17T07:56:55.273Z,4.37
2018-08-17T07:59:25.934Z,5.23
2018-08-17T08:01:56.572Z,6.03
2018-08-17T08:04:27.105Z,5.20
2018-08-17T08:06:57.782Z,5.10
2018-08-17T08:09:28.355Z,5.10
2018-08-17T08:11:58.896Z,4.65
2018-08-17T08:14:29.597Z,5.10
2018-08-17T08:17:00.360Z,5.78
2018-08-17T08:19:30.945Z,4.20
2018-08-17T08:22:01.659Z,4.92
2018-08-17T08:24:37.642Z,5.05
2018-08-17T08:27:09.482Z,4.50
2018-08-17T08:29:40.253Z,4.12
2018-08-17T08:32:11.020Z,4.62
2018-08-17T08:34:41.668Z,4.60
2018-08-17T08:37:12.277Z,3.70
2018-08-17T08:39:43.044Z,4.00
2018-08-17T08:42:13.838Z,3.80
2018-08-17T08:44:44.590Z,3.50
2018-08-17T08:47:15.293Z,4.33
2018-08-17T08:49:46.027Z,3.70
2018-08-17T08:52:17.025Z,3.30
2018-08-17T08:54:47.629Z,3.10
2018-08-17T08:57:18.337Z,3.72
2018-08-17T08:59:49.376Z,3.60
2018-08-17T09:02:20.205Z,3.83
2018-08-17T09:04:50.734Z,3.60
2018-08-17T09:07:21.425Z,3.37
2018-08-17T09:09:52.149Z,3.62
2018-08-17T09:12:22.877Z,3.37
2018-08-17T09:14:53.603Z,3.45
2018-08-17T09:17:24.344Z,3.55
2018-08-17T09:19:54.857Z,4.17
2018-08-17T09:22:25.607Z,3.05
2018-08-17T09:24:56.174Z,3.25
2018-08-17T09:27:27.025Z,3.47
2018-08-17T09:29:57.697Z,3.40
2018-08-17T09:32:28.373Z,2.85
2018-08-17T09:34:59.177Z,3.27
2018-08-17T09:37:29.905Z,3.45
2018-08-17T09:40:00.528Z,3.12
2018-08-17T09:42:31.340Z,3.60
2018-08-17T09:45:01.931Z,3.72
2018-08-17T09:47:32.598Z,3.33
2018-08-17T09:50:03.234Z,2.80
2018-08-17T09:52:33.872Z,3.45
2018-08-17T09:55:04.440Z,3.55
2018-08-17T09:57:35.102Z,2.85
2018-08-17T10:00:07.086Z,3.00
2018-08-17T10:02:42.800Z,3.25
2018-08-17T10:05:18.283Z,3.08
2018-08-17T10:07:53.981Z,3.05
2018-08-17T10:10:25.737Z,3.02
2018-08-17T10:12:56.546Z,3.30
2018-08-17T10:15:27.342Z,3.25
2018-08-17T10:17:58.109Z,3.27
2018-08-17T10:20:28.648Z,2.80
2018-08-17T10:22:59.453Z,3.02
2018-08-17T10:25:30.181Z,3.20
2018-08-17T10:28:01.068Z,2.95
2018-08-17T10:30:31.596Z,3.62
2018-08-17T10:33:02.262Z,3.47
2018-08-17T10:35:34.606Z,3.90
2018-08-17T10:38:06.422Z,3.10
2018-08-17T10:40:37.126Z,3.33
2018-08-17T10:43:08.054Z,3.27
2018-08-17T10:45:38.460Z,3.15
2018-08-17T10:48:09.294Z,3.08
2018-08-17T10:50:39.872Z,3.30
2018-08-17T10:53:10.693Z,4.90
2018-08-17T10:55:46.377Z,3.50
2018-08-17T10:58:18.485Z,3.37
2018-08-17T11:00:49.088Z,3.98
2018-08-17T11:03:19.983Z,5.62
2018-08-17T11:05:50.565Z,3.45
2018-08-17T11:08:21.385Z,3.47
2018-08-17T11:10:52.045Z,4.40
2018-08-17T11:13:22.832Z,3.52
2018-08-17T11:15:53.638Z,4.65
2018-08-17T11:18:24.349Z,3.80
2018-08-17T11:20:56.109Z,3.65
2018-08-17T11:23:26.663Z,4.00
2018-08-17T11:25:57.308Z,3.55
2018-08-17T11:28:28.349Z,3.35
2018-08-17T11:30:58.851Z,3.37
2018-08-17T11:33:30.357Z,3.87
2018-08-17T11:36:01.058Z,3.77
2018-08-17T11:38:31.846Z,3.72
2018-08-17T11:41:02.537Z,3.47
2018-08-17T11:43:33.434Z,4.40
2018-08-17T11:46:04.018Z,2.98
2018-08-17T11:48:35.585Z,3.33
2018-08-17T11:51:06.305Z,3.20
2018-08-17T11:53:37.182Z,3.12
2018-08-17T11:56:07.877Z,2.72
2018-08-17T11:58:38.698Z,3.62
2018-08-17T12:01:15.318Z,3.72
2018-08-17T12:03:46.282Z,3.42
2018-08-17T12:06:16.862Z,2.70
2018-08-17T12:08:47.529Z,2.55
2018-08-17T12:11:18.049Z,2.50
2018-08-17T12:13:48.632Z,2.40
2018-08-17T12:16:19.302Z,2.77
2018-08-17T12:18:51.020Z,2.45
2018-08-17T12:21:21.676Z,2.98
2018-08-17T12:23:52.426Z,2.65
2018-08-17T12:26:23.861Z,3.05
2018-08-17T12:28:54.529Z,2.92
2018-08-17T12:31:25.193Z,2.37
2018-08-17T12:33:55.933Z,2.87
2018-08-17T12:36:26.549Z,2.98
2018-08-17T12:38:57.181Z,2.50
2018-08-17T12:41:28.017Z,2.87
2018-08-17T12:43:59.885Z,2.95
2018-08-17T12:46:30.485Z,2.35
2018-08-17T12:49:01.209Z,3.53
2018-08-17T12:51:31.860Z,13.80
2018-08-17T12:54:02.943Z,15.80
2018-08-17T12:56:33.427Z,7.17
2018-08-17T12:59:04.057Z,5.30
2018-08-17T13:01:34.621Z,4.50
2018-08-17T13:04:05.390Z,3.40
2018-08-17T13:06:35.965Z,3.80
2018-08-17T13:09:07.903Z,3.47
2018-08-17T13:11:44.294Z,4.07
2018-08-17T13:14:14.970Z,5.33
2018-08-17T13:16:45.714Z,22.87
2018-08-17T13:19:17.112Z,3.30
2018-08-17T13:21:47.709Z,5.77
2018-08-17T13:24:18.533Z,4.93
2018-08-17T13:26:49.233Z,6.07
2018-08-17T13:29:20.345Z,2.70
2018-08-17T13:31:50.941Z,3.12
2018-08-17T13:34:21.437Z,3.95
2018-08-17T13:36:52.121Z,3.90
2018-08-17T13:39:22.851Z,3.30
2018-08-17T13:41:53.356Z,3.47
2018-08-17T13:44:24.805Z,3.37
2018-08-17T13:46:55.457Z,3.15
2018-08-17T13:49:26.093Z,3.37
2018-08-17T13:51:56.728Z,3.47
2018-08-17T13:54:27.358Z,2.87
2018-08-17T13:56:58.098Z,3.12
2018-08-17T13:59:29.070Z,3.17
2018-08-17T14:01:59.698Z,3.20
2018-08-17T14:04:30.284Z,3.15
2018-08-17T14:07:00.935Z,2.90
2018-08-17T14:09:32.450Z,3.92
2018-08-17T14:12:03.164Z,3.27
2018-08-17T14:14:35.292Z,3.05
2018-08-17T14:17:06.382Z,3.05
2018-08-17T14:19:37.190Z,3.58
2018-08-17T14:22:08.049Z,3.22
2018-08-17T14:24:38.809Z,3.00
2018-08-17T14:27:09.458Z,3.95
2018-08-17T14:29:40.295Z,3.90
2018-08-17T14:32:10.829Z,3.12
2018-08-17T14:34:41.489Z,2.77
2018-08-17T14:37:12.064Z,3.00
2018-08-17T14:39:42.878Z,10.00
2018-08-17T14:42:13.480Z,4.62
2018-08-17T14:44:44.316Z,3.05
2018-08-17T14:47:15.189Z,3.60
2018-08-17T14:49:45.973Z,3.90
2018-08-17T14:52:16.632Z,3.30
2018-08-17T14:54:47.377Z,3.20
2018-08-17T14:57:17.886Z,3.58
2018-08-17T14:59:48.792Z,4.05
2018-08-17T15:02:19.301Z,3.50
2018-08-17T15:04:50.833Z,3.30
2018-08-17T15:07:21.448Z,2.80
2018-08-17T15:09:52.242Z,3.22
2018-08-17T15:12:22.737Z,3.00
2018-08-17T15:14:54.384Z,3.20
2018-08-17T15:17:24.840Z,3.22
2018-08-17T15:19:56.637Z,4.30
2018-08-17T15:22:27.331Z,3.33
2018-08-17T15:24:58.660Z,3.10
2018-08-17T15:27:29.456Z,3.70
2018-08-17T15:30:00.264Z,2.85
2018-08-17T15:32:30.996Z,3.05
2018-08-17T15:35:02.541Z,4.08
2018-08-17T15:37:35.405Z,3.90
2018-08-17T15:40:06.961Z,3.33
2018-08-17T15:42:37.625Z,2.90
2018-08-17T15:45:09.129Z,2.85
2018-08-17T15:47:39.819Z,5.00
2018-08-17T15:50:21.526Z,3.37
2018-08-17T15:52:52.386Z,3.27
2018-08-17T15:55:23.182Z,2.80
2018-08-17T15:57:53.872Z,3.97
2018-08-17T16:00:26.032Z,4.20
2018-08-17T16:02:56.712Z,7.73
2018-08-17T16:05:27.442Z,11.25
2018-08-17T16:07:58.145Z,5.33
2018-08-17T16:10:29.065Z,3.92
2018-08-17T16:12:59.660Z,4.20
2018-08-17T16:15:30.441Z,3.83
2018-08-17T16:18:01.234Z,3.02
2018-08-17T16:20:31.813Z,3.10
2018-08-17T16:23:02.436Z,3.05
2018-08-17T16:25:33.030Z,3.30
2018-08-17T16:28:04.013Z,3.58
2018-08-17T16:30:34.893Z,3.27
2018-08-17T16:33:05.680Z,3.60
2018-08-17T16:35:37.337Z,3.53
2018-08-17T16:38:08.288Z,3.83
2018-08-17T16:40:45.477Z,3.50
2018-08-17T16:43:17.033Z,3.37
2018-08-17T16:45:49.066Z,4.00
2018-08-17T16:48:20.917Z,4.37
2018-08-17T16:53:03.940Z,4.03
2018-08-17T16:55:34.510Z,3.63
2018-08-17T16:58:05.250Z,5.63
2018-08-17T17:00:36.014Z,4.53
2018-08-17T17:03:06.906Z,3.40
2018-08-17T17:05:37.549Z,4.53
2018-08-17T17:08:08.473Z,4.90
2018-08-17T17:10:39.061Z,4.63
2018-08-17T17:13:10.354Z,4.07
2018-08-17T17:15:40.856Z,4.07
2018-08-17T17:18:11.674Z,4.27
2018-08-17T17:20:42.246Z,4.00
2018-08-17T17:23:14.197Z,4.10
2018-08-17T17:25:44.801Z,4.37
2018-08-17T17:28:15.368Z,4.17
2018-08-17T17:30:51.231Z,4.50
2018-08-17T17:33:22.684Z,4.40
2018-08-17T17:35:53.353Z,9.77
2018-08-17T17:38:23.848Z,5.30
2018-08-17T17:40:54.569Z,4.17
2018-08-17T17:43:25.286Z,3.83
2018-08-17T17:45:57.041Z,4.73
2018-08-17T17:48:27.678Z,5.90
2018-08-17T17:50:58.100Z,8.13
2018-08-17T17:53:28.747Z,10.90
2018-08-17T17:55:59.602Z,6.67
2018-08-17T17:58:30.311Z,5.57
2018-08-17T18:01:06.170Z,5.47
2018-08-17T18:03:37.014Z,5.43
2018-08-17T18:06:09.338Z,4.53
2018-08-17T18:08:39.957Z,5.67
2018-08-17T18:11:10.701Z,4.80
2018-08-17T18:13:41.317Z,4.83
2018-08-17T18:16:11.977Z,4.63
2018-08-17T18:18:42.645Z,4.93
2018-08-17T18:21:14.166Z,4.50
2018-08-17T18:23:44.876Z,4.90
2018-08-17T18:26:20.049Z,4.00
2018-08-17T18:28:50.636Z,4.43
2018-08-17T18:31:21.508Z,4.40
2018-08-17T18:33:52.022Z,4.90
2018-08-17T18:36:23.405Z,5.33
2018-08-17T18:38:54.073Z,4.70
2018-08-17T18:41:24.917Z,5.10
2018-08-17T18:43:55.544Z,6.07
2018-08-17T18:46:26.361Z,6.60
2018-08-17T18:48:57.086Z,5.47
2018-08-17T18:51:29.020Z,6.07
2018-08-17T18:53:59.712Z,5.73
2018-08-17T18:56:31.289Z,6.10
2018-08-17T18:59:02.021Z,5.70
2018-08-17T19:01:33.935Z,4.97
2018-08-17T19:04:04.693Z,5.47
2018-08-17T19:06:35.437Z,5.47
2018-08-17T19:09:08.232Z,5.33
2018-08-17T19:11:39.128Z,5.93
2018-08-17T19:14:09.838Z,5.43
2018-08-17T19:16:40.721Z,5.17
2018-08-17T19:19:11.244Z,5.47
2018-08-17T19:21:42.673Z,5.07
2018-08-17T19:24:13.713Z,5.53
2018-08-17T19:26:44.353Z,5.20
2018-08-17T19:29:15.057Z,5.50
2018-08-17T19:31:50.957Z,5.10
2018-08-17T19:34:21.696Z,4.67
2018-08-17T19:36:52.573Z,4.93
2018-08-17T19:39:27.102Z,4.80
2018-08-17T19:41:57.680Z,4.30
2018-08-17T19:44:28.304Z,4.07
2018-08-17T19:46:59.744Z,4.33
2018-08-17T19:49:30.545Z,4.13
2018-08-17T19:52:01.288Z,3.77
2018-08-17T19:54:31.759Z,4.00
2018-08-17T19:57:04.084Z,4.20
2018-08-17T19:59:34.812Z,4.60
2018-08-17T20:02:05.609Z,4.17
2018-08-17T20:04:36.145Z,4.57
2018-08-17T20:07:09.322Z,4.03
2018-08-17T20:09:40.614Z,5.10
2018-08-17T20:12:11.986Z,4.73
2018-08-17T20:14:42.440Z,5.10
2018-08-17T20:17:14.589Z,4.37
2018-08-17T20:19:48.963Z,4.40
2018-08-17T20:22:24.298Z,4.13
2018-08-17T20:24:55.006Z,4.77
2018-08-17T20:27:26.216Z,4.50
2018-08-17T20:30:05.877Z,4.27
2018-08-17T20:32:36.713Z,4.77
2018-08-17T20:35:07.609Z,4.60
2018-08-17T20:37:46.802Z,4.80
2018-08-17T20:40:18.193Z,4.43
2018-08-17T20:42:49.388Z,4.20
2018-08-17T20:45:23.313Z,4.27
2018-08-17T20:47:54.022Z,3.97
2018-08-17T20:50:24.572Z,4.43
2018-08-17T20:52:59.137Z,4.73
2018-08-17T20:55:29.817Z,4.90
2018-08-17T20:58:00.617Z,4.70
2018-08-17T21:00:31.411Z,4.40
2018-08-17T21:03:02.804Z,4.43
2018-08-17T21:05:33.437Z,4.07
2018-08-17T21:08:04.242Z,4.20
2018-08-17T21:10:34.816Z,3.93
2018-08-17T21:13:06.312Z,4.60
2018-08-17T21:15:36.969Z,4.00
2018-08-17T21:18:07.773Z,3.67
2018-08-17T21:20:38.384Z,4.77
2018-08-17T21:23:09.328Z,4.53
2018-08-17T21:25:40.009Z,4.60
2018-08-17T21:28:10.721Z,4.97
2018-08-17T21:30:41.298Z,4.77
2018-08-17T21:33:11.982Z,4.77
2018-08-17T21:35:42.653Z,4.70
2018-08-17T21:38:14.253Z,4.73
2018-08-17T21:40:44.769Z,5.10
2018-08-17T21:43:16.628Z,4.83
2018-08-17T21:45:49.109Z,4.30
2018-08-17T21:48:25.792Z,5.03
2018-08-17T21:50:56.380Z,5.10
2018-08-17T21:53:27.180Z,4.87
2018-08-17T21:55:57.568Z,4.67
2018-08-17T21:58:28.392Z,5.30
2018-08-17T22:00:59.155Z,5.33
2018-08-17T22:03:36.353Z,5.47
2018-08-17T22:06:07.108Z,6.03
2018-08-17T22:08:38.501Z,5.63
2018-08-17T22:11:09.360Z,5.87
2018-08-17T22:13:40.019Z,6.53
2018-08-17T22:16:10.548Z,6.87
2018-08-17T22:18:41.298Z,6.53
2018-08-17T22:21:11.946Z,6.70
2018-08-17T22:23:45.132Z,7.57
2018-08-17T22:26:18.516Z,7.10
2018-08-17T22:28:49.290Z,7.20
2018-08-17T22:31:35.801Z,7.67
2018-08-17T22:34:07.121Z,7.07
2018-08-17T22:36:37.776Z,7.30
2018-08-17T22:39:09.889Z,7.33
2018-08-17T22:41:40.700Z,8.00
2018-08-17T22:44:17.049Z,7.73
2018-08-17T22:47:03.789Z,8.30
2018-08-17T22:49:35.571Z,7.40
2018-08-17T22:52:06.443Z,6.90
2018-08-17T22:54:46.912Z,7.23
2018-08-17T22:57:17.921Z,7.07
2018-08-17T22:59:53.766Z,6.77
2018-08-17T23:02:24.378Z,7.33
2018-08-17T23:04:56.457Z,8.17
2018-08-17T23:07:27.095Z,7.87
2018-08-17T23:09:57.804Z,7.27
2018-08-17T23:12:28.352Z,6.97
2018-08-17T23:15:00.392Z,7.07
2018-08-17T23:17:30.877Z,7.37
2018-08-17T23:20:01.676Z,7.47
2018-08-17T23:22:32.367Z,7.00
2018-08-17T23:25:03.096Z,7.17
2018-08-17T23:27:33.835Z,7.13
2018-08-17T23:30:04.644Z,7.63
2018-08-17T23:32:35.173Z,7.77
2018-08-17T23:35:06.085Z,7.90
2018-08-17T23:37:36.764Z,7.53
2018-08-17T23:40:09.180Z,7.70
2018-08-17T23:42:39.948Z,7.50
2018-08-17T23:45:13.863Z,7.90
2018-08-17T23:47:44.544Z,7.83
2018-08-17T23:50:16.016Z,8.03
2018-08-17T23:52:46.648Z,8.10
2018-08-17T23:55:18.537Z,7.80
2018-08-17T23:57:49.150Z,7.63
